Time;durP1;ratioP1;P1;durP2;ratioP2;P2;SDS_P1;SDS_P2;PMS_P1;PMS_P2;Temp;Humidity;BMP_temperature;BMP_pressure;BME280_temperature;BME280_humidity;BME280_pressure;Samples;Min_cycle;Max_cycle;Signal;HPM_P1;HPM_P2
2024/01/12 00:00:44;;;;;;;122.38;27.45;;;;;;;-146.25;100.00;52639.91;2016681;29;36134;-70
2024/01/12 00:01:46;;;;;;;124.45;27.15;;;;;;;-146.25;100.00;52648.00;2019282;29;32217;-69
2024/01/12 00:02:50;;;;;;;90.38;25.90;;;;;;;-146.25;100.00;52684.50;2021724;29;37713;-69
2024/01/12 00:03:52;;;;;;;70.03;25.00;;;;;;;-146.25;100.00;52676.41;2024084;29;33539;-70
2024/01/12 00:04:53;;;;;;;84.00;24.60;;;;;;;-146.25;100.00;52629.75;2024412;29;36166;-70
2024/01/12 00:05:55;;;;;;;117.80;26.05;;;;;;;-146.25;100.00;52656.13;2023446;29;34985;-70
2024/01/12 00:06:57;;;;;;;98.55;25.80;;;;;;;-146.25;100.00;52670.31;2025416;29;20041;-70
2024/01/12 00:07:59;;;;;;;102.93;24.80;;;;;;;-146.25;100.00;52668.28;2024655;29;32918;-69
2024/01/12 00:09:05;;;;;;;76.97;25.20;;;;;;;-146.25;100.00;52656.13;2024039;29;34612;-69
2024/01/12 00:10:08;;;;;;;86.32;24.88;;;;;;;-146.25;100.00;52658.16;2024768;29;30870;-70
2024/01/12 00:11:12;;;;;;;80.57;22.92;;;;;;;-146.25;100.00;52662.22;2026715;29;37246;-70
2024/01/12 00:12:14;;;;;;;94.30;23.50;;;;;;;-146.25;100.00;52670.31;2024440;29;32147;-70
2024/01/12 00:13:17;;;;;;;63.88;25.20;;;;;;;-146.25;100.00;52672.34;2024787;29;35639;-70
2024/01/12 00:14:19;;;;;;;106.32;23.92;;;;;;;-146.25;100.00;52668.28;2024851;29;20045;-70
2024/01/12 00:15:21;;;;;;;98.30;25.10;;;;;;;-146.25;100.00;52656.13;2023119;29;34424;-69
2024/01/12 00:16:22;;;;;;;124.63;25.33;;;;;;;-146.25;100.00;52631.78;2016650;29;34521;-70
2024/01/12 00:17:24;;;;;;;107.80;25.75;;;;;;;-146.25;100.00;52648.00;2009388;29;20804;-69
2024/01/12 00:18:26;;;;;;;66.00;23.05;;;;;;;-146.25;100.00;52678.44;2008697;29;37725;-70
2024/01/12 00:19:28;;;;;;;97.35;24.92;;;;;;;-146.25;100.00;52648.00;2016416;29;34992;-70
2024/01/12 00:20:29;;;;;;;65.78;23.05;;;;;;;-146.25;100.00;52643.97;2016648;29;33007;-70
2024/01/12 00:21:32;;;;;;;96.68;24.40;;;;;;;-146.25;100.00;52648.00;2016722;29;34453;-70
2024/01/12 00:22:34;;;;;;;112.97;24.77;;;;;;;-146.25;100.00;52619.63;2017136;29;20048;-70
2024/01/12 00:23:35;;;;;;;111.72;24.48;;;;;;;-146.25;100.00;52664.22;2016888;29;30074;-70
2024/01/12 00:24:37;;;;;;;105.15;25.00;;;;;;;-146.25;100.00;52656.13;2016667;29;35126;-69
2024/01/12 00:25:39;;;;;;;109.47;24.65;;;;;;;-146.25;100.00;52658.16;2008361;29;20049;-70
2024/01/12 00:26:43;;;;;;;81.45;24.48;;;;;;;-146.25;100.00;52680.47;2009615;29;20042;-69
2024/01/12 00:27:45;;;;;;;94.75;25.58;;;;;;;-146.25;100.00;52648.00;2008527;29;34883;-70
2024/01/12 00:28:47;;;;;;;69.45;24.38;;;;;;;-146.25;100.00;52666.25;2015050;29;20057;-69
2024/01/12 00:29:49;;;;;;;74.05;23.23;;;;;;;-146.25;100.00;52660.19;2023890;29;36672;-70
2024/01/12 00:30:51;;;;;;;54.80;22.55;;;;;;;-146.25;100.00;52621.66;2024597;29;34416;-70
2024/01/12 00:31:54;;;;;;;114.00;24.73;;;;;;;-146.25;100.00;52629.75;2024740;29;20060;-69
2024/01/12 00:32:56;;;;;;;95.05;25.75;;;;;;;-146.25;100.00;52674.38;2015511;29;34596;-70
2024/01/12 00:33:58;;;;;;;57.15;23.00;;;;;;;-146.25;100.00;52633.81;2015295;29;31191;-69
2024/01/12 00:35:00;;;;;;;80.18;25.10;;;;;;;-146.25;100.00;52674.38;2016114;29;20113;-69
2024/01/12 00:36:01;;;;;;;53.58;25.17;;;;;;;-146.25;100.00;52631.78;2023327;29;37700;-69
2024/01/12 00:37:03;;;;;;;104.55;25.90;;;;;;;-146.25;100.00;52631.78;2024924;29;20049;-69
2024/01/12 00:38:05;;;;;;;60.35;23.92;;;;;;;-146.25;100.00;52660.19;2024875;29;36944;-69
2024/01/12 00:39:09;;;;;;;106.05;26.40;;;;;;;-146.25;100.00;52656.13;2024522;29;30892;-70
2024/01/12 00:40:12;;;;;;;72.60;24.50;;;;;;;-146.25;100.00;52654.09;2024237;29;20098;-69
2024/01/12 00:41:14;;;;;;;75.20;23.77;;;;;;;-146.25;100.00;52648.00;2007802;29;37203;-69
2024/01/12 00:42:19;;;;;;;111.78;26.33;;;;;;;-146.25;100.00;52664.22;2010821;29;37522;-69
2024/01/12 00:43:20;;;;;;;102.28;27.75;;;;;;;-146.25;100.00;52637.88;2016929;29;26459;-69
2024/01/12 00:44:22;;;;;;;87.88;26.45;;;;;;;-146.25;100.00;52668.28;2016812;29;33125;-69
2024/01/12 00:45:24;;;;;;;61.58;25.13;;;;;;;-146.25;100.00;52660.19;2016899;29;20050;-69
2024/01/12 00:46:26;;;;;;;118.03;26.80;;;;;;;-146.25;100.00;52694.66;2016794;29;35383;-70
2024/01/12 00:47:27;;;;;;;66.47;25.08;;;;;;;-146.25;100.00;52680.47;2016506;29;35300;-69
2024/01/12 00:48:29;;;;;;;61.50;24.80;;;;;;;-146.25;100.00;52637.88;2017072;29;20052;-70
2024/01/12 00:49:31;;;;;;;79.10;26.50;;;;;;;-146.25;100.00;52670.31;2016968;29;36570;-69
2024/01/12 00:50:36;;;;;;;62.80;24.67;;;;;;;-146.25;100.00;52645.97;2017228;29;20081;-70
2024/01/12 00:51:38;;;;;;;59.72;25.80;;;;;;;-146.25;100.00;52648.00;2017117;29;20164;-69
2024/01/12 00:52:39;;;;;;;62.67;26.10;;;;;;;-146.25;100.00;52676.41;2016274;29;34113;-70
2024/01/12 00:53:41;;;;;;;80.72;26.65;;;;;;;-146.25;100.00;52682.47;2016676;29;33892;-68
2024/01/12 00:54:43;;;;;;;74.53;27.00;;;;;;;-146.25;100.00;52660.19;2008825;29;20049;-69
2024/01/12 00:55:49;;;;;;;69.40;27.30;;;;;;;-146.25;100.00;52660.19;2008561;29;20153;-69
2024/01/12 00:56:50;;;;;;;57.53;25.77;;;;;;;-146.25;100.00;52684.50;2009085;29;31993;-70
2024/01/12 00:57:52;;;;;;;80.32;25.48;;;;;;;-146.25;100.00;52645.97;2017226;29;20289;-70
2024/01/12 00:58:54;;;;;;;57.67;24.67;;;;;;;-146.25;100.00;52609.50;2015956;29;35432;-70
2024/01/12 00:59:56;;;;;;;71.95;26.60;;;;;;;-146.25;100.00;52662.22;2016726;29;34096;-69
2024/01/12 01:00:58;;;;;;;60.22;26.05;;;;;;;-146.25;100.00;52678.44;2017324;29;20675;-69
2024/01/12 01:01:59;;;;;;;51.85;24.48;;;;;;;-146.25;100.00;52645.97;2016306;29;36234;-70
2024/01/12 01:03:06;;;;;;;64.20;26.75;;;;;;;-146.25;100.00;52684.50;2016469;29;31288;-69
2024/01/12 01:04:07;;;;;;;63.08;25.77;;;;;;;-146.25;100.00;52650.03;2008907;29;20888;-69
2024/01/12 01:05:09;;;;;;;56.05;26.38;;;;;;;-146.25;100.00;52650.03;2008024;29;31903;-69
2024/01/12 01:06:11;;;;;;;49.53;24.67;;;;;;;-146.25;100.00;52656.13;2016486;29;36207;-69
2024/01/12 01:07:16;;;;;;;50.42;24.40;;;;;;;-146.25;100.00;52654.09;2016665;29;31246;-69
2024/01/12 01:08:17;;;;;;;50.88;24.98;;;;;;;-146.25;100.00;52643.97;2016550;29;20970;-69
2024/01/12 01:09:19;;;;;;;67.45;25.90;;;;;;;-146.25;100.00;52652.06;2016119;29;35901;-69
2024/01/12 01:10:21;;;;;;;62.67;26.23;;;;;;;-146.25;100.00;52650.03;2008495;29;34021;-69
2024/01/12 01:11:25;;;;;;;58.72;25.48;;;;;;;-146.25;100.00;52633.81;2008596;29;32343;-69
2024/01/12 01:12:27;;;;;;;58.10;26.30;;;;;;;-146.25;100.00;52625.72;2017605;29;20048;-69
2024/01/12 01:13:29;;;;;;;51.13;25.02;;;;;;;-146.25;100.00;52656.13;2016530;29;36185;-69
2024/01/12 01:14:33;;;;;;;48.35;24.05;;;;;;;-146.25;100.00;52625.72;2016684;29;32940;-69
2024/01/12 01:15:35;;;;;;;53.20;24.60;;;;;;;-146.25;100.00;52643.97;2015986;29;36263;-69
2024/01/12 01:16:37;;;;;;;65.00;26.35;;;;;;;-146.25;100.00;52625.72;2017014;29;21095;-69
2024/01/12 01:17:39;;;;;;;54.30;26.48;;;;;;;-146.25;100.00;52635.84;2016570;29;30582;-69
2024/01/12 01:18:40;;;;;;;55.28;27.85;;;;;;;-146.25;100.00;52688.56;2016717;29;34274;-69
2024/01/12 01:19:42;;;;;;;50.80;25.27;;;;;;;-146.25;100.00;52633.81;2016845;29;20930;-69
2024/01/12 01:20:44;;;;;;;63.35;27.15;;;;;;;-146.25;100.00;52680.47;2015656;29;34975;-69
2024/01/12 01:21:46;;;;;;;56.53;25.90;;;;;;;-146.25;100.00;52674.38;2016457;29;27682;-69
2024/01/12 01:22:48;;;;;;;49.70;25.65;;;;;;;-146.25;100.00;52641.94;2016755;29;21394;-70
2024/01/12 01:23:50;;;;;;;52.78;25.95;;;;;;;-146.25;100.00;52611.50;2016219;29;36430;-69
2024/01/12 01:24:54;;;;;;;55.88;26.52;;;;;;;-146.25;100.00;52662.22;2017239;29;20354;-69
2024/01/12 01:25:56;;;;;;;67.10;26.33;;;;;;;-146.25;100.00;52670.31;2016160;29;34026;-70
2024/01/12 01:27:00;;;;;;;73.35;26.27;;;;;;;-146.25;100.00;52662.22;2016737;29;28937;-69
2024/01/12 01:28:02;;;;;;;59.17;25.52;;;;;;;-146.25;100.00;52656.13;2016840;29;20807;-69
2024/01/12 01:29:03;;;;;;;64.80;26.27;;;;;;;-146.25;100.00;52672.34;2016504;29;36584;-69
2024/01/12 01:30:07;;;;;;;74.22;25.70;;;;;;;-146.25;100.00;52658.16;2016861;29;20037;-70
2024/01/12 01:31:08;;;;;;;66.22;26.58;;;;;;;-146.25;100.00;52676.41;2016025;29;36287;-70
2024/01/12 01:32:10;;;;;;;63.42;26.67;;;;;;;-146.25;100.00;52668.28;2016599;29;34400;-70
2024/01/12 01:33:12;;;;;;;67.55;28.35;;;;;;;-146.25;100.00;52670.31;2016851;29;35484;-69
2024/01/12 01:34:15;;;;;;;51.90;26.10;;;;;;;-146.25;100.00;52595.28;2016159;29;37523;-69
2024/01/12 01:35:19;;;;;;;67.13;27.00;;;;;;;-146.25;100.00;52648.00;2008804;29;20070;-70
2024/01/12 01:36:21;;;;;;;52.65;26.13;;;;;;;-146.25;100.00;52648.00;2008715;29;35769;-69
2024/01/12 01:37:24;;;;;;;68.55;26.80;;;;;;;-146.25;100.00;52662.22;2016639;29;20041;-70
2024/01/12 01:38:26;;;;;;;68.60;26.00;;;;;;;-146.25;100.00;52641.94;2017483;29;31723;-69
2024/01/12 01:39:28;;;;;;;69.65;27.30;;;;;;;-146.25;100.00;52660.19;2015806;29;36243;-69
2024/01/12 01:40:30;;;;;;;74.30;26.90;;;;;;;-146.25;100.00;52662.22;2007723;29;20083;-70
2024/01/12 01:41:32;;;;;;;73.63;26.70;;;;;;;-146.25;100.00;52662.22;2015865;29;34859;-69
2024/01/12 01:42:34;;;;;;;63.25;26.38;;;;;;;-146.25;100.00;52615.56;2024229;29;20124;-70
2024/01/12 01:43:38;;;;;;;76.25;27.60;;;;;;;-146.25;100.00;52688.56;2015127;29;36388;-69
2024/01/12 01:44:41;;;;;;;64.45;26.67;;;;;;;-146.25;100.00;52652.06;2007313;29;32948;-70
2024/01/12 01:45:43;;;;;;;77.93;27.05;;;;;;;-146.25;100.00;52641.94;2016092;29;20233;-69
2024/01/12 01:46:47;;;;;;;75.82;27.60;;;;;;;-146.25;100.00;52664.22;2023356;29;36276;-70
2024/01/12 01:47:49;;;;;;;58.85;25.25;;;;;;;-146.25;100.00;52652.06;2023109;29;35051;-69
2024/01/12 01:48:51;;;;;;;96.90;27.65;;;;;;;-146.25;100.00;52641.94;2024602;29;20049;-70
2024/01/12 01:49:53;;;;;;;85.45;27.30;;;;;;;-146.25;100.00;52631.78;2015239;29;37292;-69
2024/01/12 01:50:57;;;;;;;76.15;28.45;;;;;;;-146.25;100.00;52660.19;2016283;29;20828;-69
2024/01/12 01:51:59;;;;;;;80.00;27.35;;;;;;;-146.25;100.00;52652.06;2015921;29;20049;-69
2024/01/12 01:53:03;;;;;;;84.00;28.50;;;;;;;-146.25;100.00;52670.31;2015569;29;34390;-69
2024/01/12 01:54:05;;;;;;;88.18;27.40;;;;;;;-146.25;100.00;52641.94;2015425;29;20943;-68
2024/01/12 01:55:09;;;;;;;82.78;27.05;;;;;;;-146.25;100.00;52631.78;2016019;29;32978;-69
2024/01/12 01:56:12;;;;;;;65.88;26.00;;;;;;;-146.25;100.00;52648.00;2016358;29;20160;-69
2024/01/12 01:58:25;;;;;;;75.05;27.58;;;;;;;-146.25;100.00;52639.91;2031557;29;20051;-70
2024/01/12 01:59:27;;;;;;;90.78;27.08;;;;;;;-146.25;100.00;52680.47;2023440;29;32530;-70
2024/01/12 02:00:31;;;;;;;70.78;27.33;;;;;;;-146.25;100.00;52621.66;2023899;29;23957;-71
2024/01/12 02:01:33;;;;;;;76.45;28.27;;;;;;;-146.25;100.00;52660.19;2023457;29;29327;-70
2024/01/12 02:02:35;;;;;;;73.93;27.48;;;;;;;-146.25;100.00;52684.50;2016824;29;20891;-70
2024/01/12 02:03:39;;;;;;;96.47;27.80;;;;;;;-146.25;100.00;52660.19;2023582;29;37101;-70
2024/01/12 02:04:41;;;;;;;74.43;27.88;;;;;;;-146.25;100.00;52648.00;2023340;29;31604;-69
2024/01/12 02:05:48;;;;;;;73.13;28.13;;;;;;;-146.25;100.00;52643.97;2017348;29;20053;-70
2024/01/12 02:06:51;;;;;;;61.63;25.58;;;;;;;-146.25;100.00;52684.50;2022933;29;37741;-71
2024/01/12 02:07:53;;;;;;;69.50;27.35;;;;;;;-146.25;100.00;52637.88;2023982;29;37593;-70
2024/01/12 02:08:56;;;;;;;80.85;28.52;;;;;;;-146.25;100.00;52629.75;2033899;29;20079;-71
2024/01/12 02:09:58;;;;;;;91.95;29.00;;;;;;;-146.25;100.00;52660.19;2016400;29;32774;-71
2024/01/12 02:11:00;;;;;;;76.15;28.33;;;;;;;-146.25;100.00;52645.97;2016530;29;20046;-70
2024/01/12 02:12:04;;;;;;;68.68;27.60;;;;;;;-146.25;100.00;52668.28;2031909;29;36497;-69
2024/01/12 02:13:06;;;;;;;63.13;26.50;;;;;;;-146.25;100.00;52648.00;2032175;29;20870;-70
2024/01/12 02:14:10;;;;;;;71.57;28.40;;;;;;;-146.25;100.00;52641.94;2031802;29;34693;-70
2024/01/12 02:15:12;;;;;;;56.28;25.48;;;;;;;-146.25;100.00;52654.09;2031448;29;21072;-71
2024/01/12 02:16:14;;;;;;;58.53;24.98;;;;;;;-146.25;100.00;52656.13;2023532;29;27171;-71
2024/01/12 02:17:16;;;;;;;69.70;26.90;;;;;;;-146.25;100.00;52706.81;2016022;29;23467;-70
2024/01/12 02:18:18;;;;;;;78.10;28.50;;;;;;;-146.25;100.00;52688.56;2024103;29;27104;-70
2024/01/12 02:19:20;;;;;;;64.80;27.98;;;;;;;-146.25;100.00;52650.03;2031445;29;36134;-70
2024/01/12 02:20:22;;;;;;;72.28;28.75;;;;;;;-146.25;100.00;52654.09;2031714;29;35823;-70
2024/01/12 02:21:24;;;;;;;67.22;26.55;;;;;;;-146.25;100.00;52652.06;2031352;29;34255;-71
2024/01/12 02:22:26;;;;;;;64.63;26.40;;;;;;;-146.25;100.00;52672.34;2031082;29;36968;-71
2024/01/12 02:23:31;;;;;;;73.63;27.45;;;;;;;-146.25;100.00;52684.50;2023891;29;21143;-71
2024/01/12 02:24:33;;;;;;;79.15;27.35;;;;;;;-146.25;100.00;52633.81;2023787;29;35482;-71
2024/01/12 02:25:35;;;;;;;77.10;26.75;;;;;;;-146.25;100.00;52643.97;2032040;29;21147;-71
2024/01/12 02:26:36;;;;;;;66.03;27.13;;;;;;;-146.25;100.00;52648.00;2031958;29;29753;-71
2024/01/12 02:27:38;;;;;;;79.07;28.05;;;;;;;-146.25;100.00;52652.06;2032439;29;20045;-71
2024/01/12 02:28:40;;;;;;;81.15;28.35;;;;;;;-146.25;100.00;52648.00;2033350;29;34342;-71
2024/01/12 02:29:43;;;;;;;74.95;28.30;;;;;;;-146.25;100.00;52654.09;2023735;29;27340;-70
2024/01/12 02:30:45;;;;;;;69.30;25.90;;;;;;;-146.25;100.00;52666.25;2023716;29;20091;-70
2024/01/12 02:31:50;;;;;;;75.40;28.65;;;;;;;-146.25;100.00;52656.13;2023050;29;35579;-71
2024/01/12 02:32:52;;;;;;;73.53;27.80;;;;;;;-146.25;100.00;52648.00;2023044;29;35353;-70
2024/01/12 02:33:54;;;;;;;68.47;25.65;;;;;;;-146.25;100.00;52672.34;2016677;29;20041;-70
2024/01/12 02:34:55;;;;;;;59.03;26.40;;;;;;;-146.25;100.00;52662.22;2023254;29;33194;-70
2024/01/12 02:35:57;;;;;;;75.50;27.77;;;;;;;-146.25;100.00;52623.69;2023243;29;35242;-71
2024/01/12 02:36:59;;;;;;;77.28;28.40;;;;;;;-146.25;100.00;52654.09;2023746;29;20073;-70
2024/01/12 02:38:01;;;;;;;73.53;27.25;;;;;;;-146.25;100.00;52664.22;2032151;29;20044;-70
2024/01/12 02:39:03;;;;;;;80.82;28.58;;;;;;;-146.25;100.00;52643.97;2023334;29;29823;-72
2024/01/12 02:40:07;;;;;;;82.20;28.50;;;;;;;-146.25;100.00;52660.19;2024623;29;25282;-71
2024/01/12 02:41:09;;;;;;;67.70;26.30;;;;;;;-146.25;100.00;52662.22;2031168;29;35757;-70
2024/01/12 02:42:11;;;;;;;71.20;27.77;;;;;;;-146.25;100.00;52676.41;2031585;29;32652;-71
2024/01/12 02:43:12;;;;;;;66.38;25.73;;;;;;;-146.25;100.00;52639.91;2031554;29;30633;-71
2024/01/12 02:44:17;;;;;;;83.15;28.20;;;;;;;-146.25;100.00;52654.09;2031074;29;36168;-72
2024/01/12 02:45:19;;;;;;;77.55;28.48;;;;;;;-146.25;100.00;52629.75;2031109;29;35159;-69
2024/01/12 02:46:20;;;;;;;73.82;26.15;;;;;;;-146.25;100.00;52664.22;2031344;29;35292;-70
2024/01/12 02:47:22;;;;;;;73.78;28.42;;;;;;;-146.25;100.00;52664.22;2032323;29;20171;-69
2024/01/12 02:48:24;;;;;;;72.43;28.38;;;;;;;-146.25;100.00;52672.34;2031514;29;28351;-70
2024/01/12 02:49:26;;;;;;;64.25;26.65;;;;;;;-146.25;100.00;52619.63;2031635;29;35014;-70
2024/01/12 02:50:27;;;;;;;71.53;27.90;;;;;;;-146.25;100.00;52662.22;2031526;29;33781;-70
2024/01/12 02:51:31;;;;;;;62.20;25.63;;;;;;;-146.25;100.00;52623.69;2031113;29;34896;-71
2024/01/12 02:52:35;;;;;;;73.18;27.17;;;;;;;-146.25;100.00;52643.97;2031689;29;30934;-70
2024/01/12 02:53:40;;;;;;;74.80;26.70;;;;;;;-146.25;100.00;52656.13;2031461;29;33920;-70
2024/01/12 02:54:42;;;;;;;73.45;27.10;;;;;;;-146.25;100.00;52641.94;2031466;29;34195;-71
2024/01/12 02:55:46;;;;;;;65.97;26.08;;;;;;;-146.25;100.00;52660.19;2031774;29;20032;-69
2024/01/12 02:56:48;;;;;;;72.93;28.30;;;;;;;-146.25;100.00;52635.84;2031536;29;33936;-70
2024/01/12 02:57:50;;;;;;;68.28;26.33;;;;;;;-146.25;100.00;52648.00;2031093;29;31291;-71
2024/01/12 02:58:51;;;;;;;72.75;28.35;;;;;;;-146.25;100.00;52666.25;2031411;29;33008;-70
2024/01/12 02:59:53;;;;;;;68.57;27.70;;;;;;;-146.25;100.00;52652.06;2031643;29;34645;-70
2024/01/12 03:00:58;;;;;;;79.70;27.52;;;;;;;-146.25;100.00;52648.00;2023146;29;20049;-70
2024/01/12 03:02:00;;;;;;;83.20;28.67;;;;;;;-146.25;100.00;52670.31;2022972;29;33840;-69
2024/01/12 03:03:02;;;;;;;68.80;28.42;;;;;;;-146.25;100.00;52648.00;2024276;29;20045;-70
2024/01/12 03:04:04;;;;;;;67.53;26.48;;;;;;;-146.25;100.00;52664.22;2023256;29;34571;-70
2024/01/12 03:05:06;;;;;;;70.97;26.83;;;;;;;-146.25;100.00;52668.28;2023237;29;31290;-70
2024/01/12 03:06:08;;;;;;;75.90;27.35;;;;;;;-146.25;100.00;52650.03;2023993;29;20045;-70
2024/01/12 03:07:10;;;;;;;67.32;27.20;;;;;;;-146.25;100.00;52688.56;2014891;29;27812;-70
2024/01/12 03:08:12;;;;;;;70.70;26.55;;;;;;;-146.25;100.00;52662.22;2015541;29;35262;-69
2024/01/12 03:09:14;;;;;;;72.55;26.65;;;;;;;-146.25;100.00;52656.13;2023910;29;20092;-69
2024/01/12 03:10:17;;;;;;;84.07;26.85;;;;;;;-146.25;100.00;52650.03;2024159;29;20775;-70
2024/01/12 03:11:19;;;;;;;64.10;25.27;;;;;;;-146.25;100.00;52660.19;2023393;29;31943;-70
2024/01/12 03:12:21;;;;;;;77.82;26.50;;;;;;;-146.25;100.00;52676.41;2023984;29;20108;-70
2024/01/12 03:13:23;;;;;;;73.15;26.08;;;;;;;-146.25;100.00;52660.19;2023734;29;28246;-70
2024/01/12 03:14:24;;;;;;;79.72;28.00;;;;;;;-146.25;100.00;52672.34;2028969;29;34288;-70
2024/01/12 03:15:26;;;;;;;63.30;25.08;;;;;;;-146.25;100.00;52637.88;2023595;29;20041;-70
2024/01/12 03:16:28;;;;;;;66.22;25.15;;;;;;;-146.25;100.00;52648.00;2023000;29;35829;-70
2024/01/12 03:17:30;;;;;;;56.30;23.25;;;;;;;-146.25;100.00;52680.47;2031969;29;20124;-70
2024/01/12 03:18:32;;;;;;;62.42;23.75;;;;;;;-146.25;100.00;52650.03;2031488;29;35255;-71
2024/01/12 03:19:34;;;;;;;80.10;26.23;;;;;;;-146.25;100.00;52648.00;2022636;29;34545;-71
2024/01/12 03:20:36;;;;;;;77.85;25.30;;;;;;;-146.25;100.00;52680.47;2023065;29;33659;-70
2024/01/12 03:21:38;;;;;;;85.65;24.95;;;;;;;-146.25;100.00;52672.34;2023311;29;20949;-69
2024/01/12 03:22:40;;;;;;;81.50;25.10;;;;;;;-146.25;100.00;52633.81;2015506;29;34717;-70
2024/01/12 03:23:42;;;;;;;66.95;24.13;;;;;;;-146.25;100.00;52660.19;2031332;29;20083;-71
2024/01/12 03:24:43;;;;;;;80.07;25.40;;;;;;;-146.25;100.00;52658.16;2031319;29;33390;-71
2024/01/12 03:25:45;;;;;;;80.30;24.88;;;;;;;-146.25;100.00;52645.97;2030981;29;33235;-71
2024/01/12 03:26:47;;;;;;;77.55;25.17;;;;;;;-146.25;100.00;52710.88;2022754;29;32445;-71
2024/01/12 03:27:49;;;;;;;75.32;24.75;;;;;;;-146.25;100.00;52603.41;2022768;29;36550;-70
2024/01/12 03:28:50;;;;;;;70.70;24.90;;;;;;;-146.25;100.00;52702.75;2031244;29;36319;-71
2024/01/12 03:29:52;;;;;;;88.88;26.23;;;;;;;-146.25;100.00;52712.91;2031523;29;31267;-70
2024/01/12 03:30:54;;;;;;;72.22;25.92;;;;;;;-146.25;100.00;52658.16;2031239;29;32494;-72
2024/01/12 03:31:56;;;;;;;81.63;24.92;;;;;;;-146.25;100.00;52674.38;2030871;29;36321;-72
2024/01/12 03:32:57;;;;;;;69.03;24.50;;;;;;;-146.25;100.00;52650.03;2031503;29;28921;-70
2024/01/12 03:33:59;;;;;;;65.82;23.77;;;;;;;-146.25;100.00;52631.78;2022974;29;31440;-70
2024/01/12 03:35:04;;;;;;;77.57;23.27;;;;;;;-146.25;100.00;52668.28;2023654;29;20045;-71
2024/01/12 03:36:07;;;;;;;81.75;25.35;;;;;;;-146.25;100.00;52643.97;2030812;29;32513;-70
2024/01/12 03:37:11;;;;;;;78.68;24.17;;;;;;;-146.25;100.00;52692.63;2031168;29;35087;-71
2024/01/12 03:38:13;;;;;;;80.47;24.67;;;;;;;-146.25;100.00;52656.13;2031919;29;20045;-70
2024/01/12 03:39:15;;;;;;;83.40;24.35;;;;;;;-146.25;100.00;52680.47;2031126;29;36531;-70
2024/01/12 03:40:17;;;;;;;72.63;23.70;;;;;;;-146.25;100.00;52621.66;2031493;29;33576;-70
2024/01/12 03:41:20;;;;;;;58.53;22.45;;;;;;;-146.25;100.00;52688.56;2031773;29;21029;-70
2024/01/12 03:42:22;;;;;;;65.45;23.15;;;;;;;-146.25;100.00;52639.91;2031335;29;34752;-70
2024/01/12 03:43:24;;;;;;;68.97;22.88;;;;;;;-146.25;100.00;52621.66;2031354;29;34345;-69
2024/01/12 03:44:31;;;;;;;70.90;24.45;;;;;;;-146.25;100.00;52641.94;2024109;29;20981;-70
2024/01/12 03:45:33;;;;;;;64.13;22.30;;;;;;;-146.25;100.00;52652.06;2024934;29;35381;-70
2024/01/12 03:46:36;;;;;;;68.07;23.48;;;;;;;-146.25;100.00;52637.88;2032758;29;26636;-69
2024/01/12 03:47:37;;;;;;;69.10;23.65;;;;;;;-146.25;100.00;52662.22;2016388;29;34294;-71
2024/01/12 03:48:45;;;;;;;75.38;25.05;;;;;;;-146.25;100.00;52666.25;2016410;29;36341;-70
2024/01/12 03:49:49;;;;;;;71.55;21.88;;;;;;;-146.25;100.00;52664.22;2032754;29;20083;-69
2024/01/12 03:50:51;;;;;;;72.90;22.52;;;;;;;-146.25;100.00;52643.97;2032383;29;36129;-70
2024/01/12 03:51:55;;;;;;;57.53;20.67;;;;;;;-146.25;100.00;52658.16;2032469;29;34176;-70
2024/01/12 03:52:57;;;;;;;71.15;21.65;;;;;;;-146.25;100.00;52680.47;2032377;29;33653;-70
2024/01/12 03:53:59;;;;;;;58.45;19.77;;;;;;;-146.25;100.00;52613.53;2032454;29;35769;-70
2024/01/12 03:55:01;;;;;;;62.30;20.73;;;;;;;-146.25;100.00;52662.22;2032383;29;34994;-70
2024/01/12 03:56:03;;;;;;;63.60;19.80;;;;;;;-146.25;100.00;52666.25;2032174;29;33441;-70
2024/01/12 03:57:05;;;;;;;67.70;20.20;;;;;;;-146.25;100.00;52668.28;2032116;29;35333;-69
2024/01/12 03:58:07;;;;;;;64.10;19.73;;;;;;;-146.25;100.00;52654.09;2033019;29;20056;-70
2024/01/12 03:59:11;;;;;;;56.03;19.45;;;;;;;-146.25;100.00;52680.47;2024049;29;33074;-70
2024/01/12 04:00:13;;;;;;;49.40;18.05;;;;;;;-146.25;100.00;52631.78;2024133;29;31925;-70
2024/01/12 04:01:15;;;;;;;60.95;18.48;;;;;;;-146.25;100.00;52658.16;2024325;29;33124;-70
2024/01/12 04:02:20;;;;;;;59.85;18.25;;;;;;;-146.25;100.00;52688.56;2024771;29;20815;-70
2024/01/12 04:03:22;;;;;;;52.58;18.60;;;;;;;-146.25;100.00;52631.78;2025271;29;20140;-70
2024/01/12 04:04:24;;;;;;;61.13;19.48;;;;;;;-146.25;100.00;52670.31;2032323;29;34020;-70
2024/01/12 04:05:25;;;;;;;47.78;18.60;;;;;;;-146.25;100.00;52676.41;2032079;29;35021;-69
2024/01/12 04:06:27;;;;;;;50.65;18.10;;;;;;;-146.25;100.00;52641.94;2033243;29;20091;-70
2024/01/12 04:07:29;;;;;;;61.63;18.73;;;;;;;-146.25;100.00;52660.19;2032827;29;20291;-70
2024/01/12 04:08:31;;;;;;;64.00;18.67;;;;;;;-146.25;100.00;52692.63;2032056;29;39730;-70
2024/01/12 04:09:33;;;;;;;53.17;17.83;;;;;;;-146.25;100.00;52662.22;2033598;29;20049;-70
2024/01/12 04:10:36;;;;;;;62.15;18.00;;;;;;;-146.25;100.00;52668.28;2032976;29;24687;-70
2024/01/12 04:11:39;;;;;;;50.25;17.70;;;;;;;-146.25;100.00;52645.97;2032261;29;34845;-70
2024/01/12 04:12:41;;;;;;;50.38;17.80;;;;;;;-146.25;100.00;52682.47;2032763;29;20039;-70
2024/01/12 04:13:45;;;;;;;55.13;18.67;;;;;;;-146.25;100.00;52676.41;2032907;29;20890;-70
2024/01/12 04:14:47;;;;;;;67.13;18.42;;;;;;;-146.25;100.00;52645.97;2032206;29;35338;-69
2024/01/12 04:15:48;;;;;;;60.13;18.35;;;;;;;-146.25;100.00;52656.13;2032235;29;36800;-71
2024/01/12 04:16:52;;;;;;;53.80;18.15;;;;;;;-146.25;100.00;52643.97;2032273;29;33476;-70
2024/01/12 04:17:54;;;;;;;63.30;17.88;;;;;;;-146.25;100.00;52660.19;2032491;29;33666;-69
2024/01/12 04:18:56;;;;;;;62.95;17.80;;;;;;;-146.25;100.00;52639.91;2023978;29;32672;-70
2024/01/12 04:19:58;;;;;;;50.20;16.60;;;;;;;-146.25;100.00;52666.25;2023823;29;37317;-69
2024/01/12 04:21:05;;;;;;;73.53;18.70;;;;;;;-146.25;100.00;52688.56;2024864;29;20120;-70
2024/01/12 04:22:07;;;;;;;61.50;17.73;;;;;;;-146.25;100.00;52660.19;2024055;29;37255;-69
2024/01/12 04:23:09;;;;;;;58.10;17.58;;;;;;;-146.25;100.00;52660.19;2024671;29;20104;-70
2024/01/12 04:24:11;;;;;;;57.20;17.85;;;;;;;-146.25;100.00;52672.34;2031385;29;34479;-69
2024/01/12 04:25:15;;;;;;;58.13;17.77;;;;;;;-146.25;100.00;52652.06;2032181;29;39502;-70
2024/01/12 04:26:18;;;;;;;51.78;16.40;;;;;;;-146.25;100.00;52664.22;2033021;29;20057;-71
2024/01/12 04:27:20;;;;;;;44.58;15.32;;;;;;;-146.25;100.00;52684.50;2032351;29;35205;-70
2024/01/12 04:28:21;;;;;;;56.38;17.95;;;;;;;-146.25;100.00;52664.22;2024078;29;29836;-70
2024/01/12 04:29:23;;;;;;;45.53;16.80;;;;;;;-146.25;100.00;52637.88;2024096;29;32943;-70
2024/01/12 04:30:25;;;;;;;49.55;17.65;;;;;;;-146.25;100.00;52658.16;2032395;29;32379;-70
2024/01/12 04:31:29;;;;;;;53.35;16.85;;;;;;;-146.25;100.00;52672.34;2033377;29;20081;-70
2024/01/12 04:32:31;;;;;;;63.08;18.17;;;;;;;-146.25;100.00;52668.28;2032452;29;20173;-68
2024/01/12 04:33:35;;;;;;;57.15;18.98;;;;;;;-146.25;100.00;52652.06;2031900;29;32516;-71
2024/01/12 04:34:38;;;;;;;56.25;16.83;;;;;;;-146.25;100.00;52668.28;2033137;29;20048;-71
2024/01/12 04:35:40;;;;;;;51.38;18.52;;;;;;;-146.25;100.00;52652.06;2032135;29;34820;-71
2024/01/12 04:36:42;;;;;;;55.05;17.38;;;;;;;-146.25;100.00;52662.22;2033237;29;20036;-71
2024/01/12 04:37:44;;;;;;;53.40;18.02;;;;;;;-146.25;100.00;52648.00;2023710;29;36236;-71
2024/01/12 04:38:46;;;;;;;38.75;15.57;;;;;;;-146.25;100.00;52688.56;2016201;29;31964;-70